Yarker, Canada
Current Conditions -  °F | °C
As of 5:00 PM on Monday 20 Oct 2014 (Local Time) from CYGK Reporting Station
Rain Showers Rain Showers  
Wind Chill: 52°   Ceiling: 4900
Heat Index: 52°   Visibility: 15mi
Dew Point: 43°   Wind: 12mph
Humidity: 71%   Direction: 200°SSW
Pressure: 29.85"   Gusts: 17mph
Location:  44.37°N, 76.77°W
Report Text: CYGK 202100Z 20010G15KT 15SM -SHRA FEW030 OVC049 11/06 A2985 RMK CU2SC6 SLP112
Loading
Personal Weather Stations






























Interactive Weather Map
Tropical Storm Tracking
New forecast layout! Learn more

10-Day Weather Forecast

Advertisements
Track Severe Weather on mobile